Terminal Aerodrome Forecast
Issued by NWS

Home | Current Version | Previous Version | Text Only | Print | Product List | Glossary On
Versions: 1 2 3 4 5 6 7 8 9 10 11 12 13 14 15 16 17 18 19 20 21 22 23
131
FTUS41 KBTV 121749 AAA
TAFSLK
TAF AMD
KSLK 121749Z 1218/1318 23013G24KT 3SM -SHSN BKN025 OVC035
      TEMPO 1218/1222 1SM -SHSN OVC020
     FM130200 21012KT 1SM -SHSN BR OVC012
     FM130600 25008KT 6SM -SHSN OVC020
     FM130900 29010G16KT P6SM -SHSN OVC015
     FM131100 28012G20KT P6SM -SHSN OVC020
     FM131400 28012KT P6SM SCT025=

USA.gov is the U.S. government's official web portal to all federal, state and local government web resources and services.